Time;durP1;ratioP1;P1;durP2;ratioP2;P2;SDS_P1;SDS_P2;PMS_P1;PMS_P2;Temp;Humidity;BMP_temperature;BMP_pressure;BME280_temperature;BME280_humidity;BME280_pressure;Samples;Min_cycle;Max_cycle;Signal;HPM_P1;HPM_P2
2024/02/09 00:02:07;;;;;;;36.50;7.80;;;11.30;99.90;;;;;;4991604;28;20114;-56
2024/02/09 00:04:38;;;;;;;28.42;6.75;;;11.30;99.90;;;;;;4975501;28;20026;-51
2024/02/09 00:07:04;;;;;;;25.38;6.47;;;11.20;99.90;;;;;;4971079;28;20030;-49
2024/02/09 00:09:29;;;;;;;28.42;7.22;;;11.20;99.90;;;;;;4973040;28;20018;-51
2024/02/09 00:11:55;;;;;;;31.42;7.97;;;11.20;99.90;;;;;;4972204;28;20037;-51
2024/02/09 00:14:20;;;;;;;35.70;7.72;;;11.20;99.90;;;;;;4971808;28;20050;-56
2024/02/09 00:16:46;;;;;;;31.17;9.23;;;11.20;99.90;;;;;;4973293;28;20412;-50
2024/02/09 00:19:12;;;;;;;33.38;7.55;;;11.20;99.90;;;;;;4971931;28;20041;-56
2024/02/09 00:21:37;;;;;;;25.63;7.50;;;11.30;99.90;;;;;;4971852;28;20026;-53
2024/02/09 00:24:03;;;;;;;25.85;7.70;;;11.30;99.90;;;;;;4971511;28;20039;-57
2024/02/09 00:26:28;;;;;;;36.75;7.85;;;11.30;99.90;;;;;;4971693;28;20027;-52
2024/02/09 00:28:54;;;;;;;26.52;7.03;;;11.30;99.90;;;;;;4971957;28;20035;-51
2024/02/09 00:31:22;;;;;;;27.88;8.07;;;11.40;99.90;;;;;;4971820;28;20551;-55
2024/02/09 00:33:48;;;;;;;22.08;7.07;;;11.30;99.90;;;;;;4971944;28;20034;-54
2024/02/09 00:36:14;;;;;;;32.88;7.63;;;11.40;99.90;;;;;;4971843;28;20551;-55
2024/02/09 00:38:39;;;;;;;31.00;7.85;;;11.40;99.90;;;;;;4971534;28;20073;-54
2024/02/09 00:41:07;;;;;;;24.10;6.20;;;11.40;99.90;;;;;;4955580;28;20058;-55
2024/02/09 00:43:33;;;;;;;30.08;8.85;;;11.40;99.90;;;;;;4971016;28;20019;-50
2024/02/09 00:46:00;;;;;;;26.77;6.00;;;11.40;99.90;;;;;;4970131;28;20026;-54
2024/02/09 00:48:26;;;;;;;21.33;6.28;;;11.40;99.90;;;;;;4954118;28;20062;-55
2024/02/09 00:50:52;;;;;;;25.25;6.43;;;11.40;99.90;;;;;;4970006;28;20062;-57
2024/02/09 00:53:18;;;;;;;28.83;5.70;;;11.40;99.90;;;;;;4969828;28;20057;-50
2024/02/09 00:55:43;;;;;;;22.23;5.78;;;11.40;99.90;;;;;;4972719;28;20078;-54
2024/02/09 00:58:11;;;;;;;31.55;7.03;;;11.50;99.90;;;;;;5002186;23;20080;-50
2024/02/09 01:00:40;;;;;;;19.90;5.07;;;11.50;99.90;;;;;;4991802;28;20022;-49
2024/02/09 01:03:07;;;;;;;22.63;5.15;;;11.50;99.90;;;;;;4992998;28;20026;-47
2024/02/09 01:05:33;;;;;;;29.90;5.75;;;11.60;99.90;;;;;;4993026;28;20014;-49
2024/02/09 01:07:59;;;;;;;21.30;5.45;;;11.60;99.90;;;;;;4991760;28;20033;-49
2024/02/09 01:10:25;;;;;;;17.48;5.35;;;11.60;99.90;;;;;;4993098;28;20023;-51
2024/02/09 02:46:13;;;;;;;2.95;1.70;;;11.40;99.90;;;;;;4991791;28;20025;-48
2024/02/09 03:05:20;;;;;;;5.13;2.22;;;11.30;99.90;;;;;;4995244;28;20044;-44
2024/02/09 03:07:50;;;;;;;4.90;1.85;;;11.30;99.90;;;;;;4995010;28;20447;-47
2024/02/09 03:10:16;;;;;;;5.75;1.85;;;11.30;99.90;;;;;;4995246;28;20373;-48
2024/02/09 03:12:42;;;;;;;4.13;1.98;;;11.30;99.90;;;;;;4995017;28;20077;-48
2024/02/09 03:15:11;;;;;;;5.65;2.47;;;11.20;99.90;;;;;;4994266;28;20093;-47
2024/02/09 03:17:40;;;;;;;6.15;1.73;;;11.30;99.90;;;;;;4994994;28;20033;-46
2024/02/09 03:20:07;;;;;;;6.03;1.70;;;11.20;99.90;;;;;;4995059;28;20037;-46
2024/02/09 03:22:34;;;;;;;5.88;2.15;;;11.20;99.90;;;;;;4994861;28;20030;-46
2024/02/09 03:25:03;;;;;;;2.70;1.70;;;11.10;99.90;;;;;;4994570;28;20034;-47
2024/02/09 03:27:33;;;;;;;5.90;1.90;;;11.10;99.90;;;;;;4994286;28;20069;-44
2024/02/09 03:30:04;;;;;;;8.15;1.73;;;11.10;99.90;;;;;;4994711;28;20165;-47
2024/02/09 03:32:32;;;;;;;2.85;1.40;;;11.10;99.90;;;;;;4994779;28;20038;-45
2024/02/09 03:34:58;;;;;;;4.45;2.20;;;11.00;99.90;;;;;;4994388;28;20014;-45
2024/02/09 03:37:26;;;;;;;6.82;2.30;;;11.00;99.90;;;;;;4994704;28;20068;-46
2024/02/09 03:39:52;;;;;;;11.63;3.00;;;11.00;99.90;;;;;;4994875;28;20022;-46
2024/02/09 03:42:21;;;;;;;7.35;2.65;;;11.00;99.90;;;;;;4994604;28;20113;-50
2024/02/09 03:44:48;;;;;;;7.07;3.10;;;11.00;99.90;;;;;;4994477;28;20045;-48
2024/02/09 03:47:14;;;;;;;9.32;3.20;;;10.90;99.90;;;;;;4994549;28;20015;-46
2024/02/09 03:49:39;;;;;;;9.80;2.50;;;10.90;99.90;;;;;;4994549;28;20396;-48
2024/02/09 03:52:06;;;;;;;13.25;2.95;;;10.80;99.90;;;;;;4994187;28;20050;-48
2024/02/09 03:54:32;;;;;;;9.95;4.25;;;10.80;99.90;;;;;;4994034;28;20018;-46
2024/02/09 03:56:58;;;;;;;9.73;2.80;;;10.70;99.90;;;;;;4994157;28;20022;-47
2024/02/09 03:59:23;;;;;;;8.70;3.22;;;10.70;99.90;;;;;;4994232;28;20160;-48
2024/02/09 04:01:49;;;;;;;8.68;3.35;;;10.60;99.90;;;;;;4994393;28;20038;-51
2024/02/09 04:04:14;;;;;;;9.05;3.95;;;10.60;99.90;;;;;;4993662;28;20026;-47
2024/02/09 04:06:40;;;;;;;6.88;3.38;;;10.60;99.90;;;;;;4994183;28;20026;-51
2024/02/09 04:09:05;;;;;;;9.30;3.78;;;10.60;99.90;;;;;;4994142;28;20027;-49
2024/02/09 04:11:31;;;;;;;12.02;3.42;;;10.60;99.90;;;;;;4976665;28;20023;-46
2024/02/09 04:13:56;;;;;;;12.75;4.28;;;10.60;99.90;;;;;;4999888;28;20034;-48
2024/02/09 04:16:22;;;;;;;12.43;3.13;;;10.60;99.90;;;;;;5013434;28;20109;-47
2024/02/09 04:18:48;;;;;;;18.17;4.20;;;10.60;99.90;;;;;;5013486;28;20030;-48
2024/02/09 04:21:15;;;;;;;10.13;4.22;;;10.60;99.90;;;;;;5013398;28;20121;-47
2024/02/09 04:23:41;;;;;;;9.95;4.35;;;10.60;99.90;;;;;;5013153;28;20040;-46
2024/02/09 04:26:08;;;;;;;14.38;4.13;;;10.60;99.90;;;;;;5012999;28;20113;-47
2024/02/09 04:28:34;;;;;;;10.40;4.28;;;10.60;99.90;;;;;;5013184;28;20022;-49
2024/02/09 04:30:59;;;;;;;6.30;3.67;;;10.60;99.90;;;;;;5013317;28;20030;-46
2024/02/09 04:33:25;;;;;;;6.07;3.58;;;10.60;99.90;;;;;;5013175;28;20033;-45
2024/02/09 04:35:50;;;;;;;11.20;3.67;;;10.60;99.90;;;;;;5013321;28;20026;-47
2024/02/09 04:38:17;;;;;;;9.73;3.72;;;10.60;99.90;;;;;;5013099;28;20038;-47
2024/02/09 04:40:44;;;;;;;11.15;4.97;;;10.60;99.90;;;;;;5013233;28;20109;-47
2024/02/09 04:43:09;;;;;;;9.13;4.07;;;10.60;99.90;;;;;;5012445;28;20033;-47
2024/02/09 04:45:35;;;;;;;8.75;3.72;;;10.60;99.90;;;;;;5012996;28;20031;-48
2024/02/09 04:48:00;;;;;;;11.85;4.60;;;10.60;99.90;;;;;;5011594;28;20021;-47
2024/02/09 04:50:25;;;;;;;9.88;4.25;;;10.60;99.90;;;;;;4995339;28;20026;-49
2024/02/09 04:52:51;;;;;;;9.90;3.85;;;10.60;99.90;;;;;;5012774;28;20026;-47
2024/02/09 04:55:17;;;;;;;8.65;3.95;;;10.70;99.90;;;;;;5012911;28;20033;-51
2024/02/09 04:57:43;;;;;;;11.30;3.80;;;10.70;99.90;;;;;;5013042;28;20029;-48
2024/02/09 05:00:09;;;;;;;10.98;3.58;;;10.70;99.90;;;;;;5012720;28;20101;-45
2024/02/09 05:02:36;;;;;;;11.27;3.03;;;10.70;99.90;;;;;;5012940;28;20033;-51
2024/02/09 05:05:02;;;;;;;12.52;4.18;;;10.70;99.90;;;;;;5012847;28;20021;-49
2024/02/09 05:07:27;;;;;;;11.75;3.97;;;10.70;99.90;;;;;;5012897;28;20558;-48
2024/02/09 05:09:53;;;;;;;7.35;3.45;;;10.70;99.90;;;;;;5013134;28;20029;-44
2024/02/09 05:12:18;;;;;;;8.30;4.28;;;10.80;99.90;;;;;;5013356;28;20558;-46
2024/02/09 05:14:51;;;;;;;8.18;3.47;;;10.70;99.90;;;;;;5012760;28;20101;-47
2024/02/09 05:17:16;;;;;;;9.30;3.90;;;10.70;99.90;;;;;;5013120;28;20028;-47
2024/02/09 05:19:42;;;;;;;7.53;3.90;;;10.70;99.90;;;;;;5013106;28;20471;-51
2024/02/09 05:22:07;;;;;;;8.88;4.45;;;10.70;99.90;;;;;;5012909;28;20026;-47
2024/02/09 05:24:35;;;;;;;11.27;4.53;;;10.70;99.90;;;;;;5012772;28;20033;-46
2024/02/09 05:27:00;;;;;;;15.00;5.28;;;10.70;99.90;;;;;;5011932;28;20022;-50
2024/02/09 05:29:26;;;;;;;10.27;5.05;;;10.70;99.90;;;;;;4995164;28;20088;-48
2024/02/09 05:31:56;;;;;;;11.70;5.50;;;10.70;99.90;;;;;;5012938;28;20064;-46
2024/02/09 05:34:21;;;;;;;9.70;5.00;;;10.70;99.90;;;;;;5012350;28;20025;-48
2024/02/09 05:36:47;;;;;;;15.77;5.25;;;10.60;99.90;;;;;;5012269;28;20030;-46
2024/02/09 05:39:13;;;;;;;9.68;5.10;;;10.60;99.90;;;;;;5012543;28;20029;-53
2024/02/09 05:41:38;;;;;;;7.47;5.40;;;10.60;99.90;;;;;;5012656;28;20054;-51
2024/02/09 05:44:06;;;;;;;11.75;5.70;;;10.60;99.90;;;;;;5011921;28;20400;-48
2024/02/09 05:46:31;;;;;;;14.77;6.97;;;10.60;99.90;;;;;;5012365;28;20438;-46
2024/02/09 05:48:57;;;;;;;11.25;6.25;;;10.50;99.90;;;;;;5012411;28;20022;-50
2024/02/09 05:51:23;;;;;;;19.40;8.65;;;10.60;99.90;;;;;;5012379;28;20026;-46
2024/02/09 05:53:49;;;;;;;15.88;6.90;;;10.60;99.90;;;;;;5011946;28;20029;-47
2024/02/09 05:56:19;;;;;;;9.98;6.93;;;10.60;99.90;;;;;;5012232;28;20026;-49
2024/02/09 05:58:48;;;;;;;14.82;7.28;;;10.60;99.90;;;;;;4994263;28;20609;-48
2024/02/09 06:01:14;;;;;;;21.15;7.47;;;10.70;99.90;;;;;;5012144;28;20080;-47
2024/02/09 06:03:43;;;;;;;12.32;8.02;;;10.70;99.90;;;;;;5011875;28;20030;-49
2024/02/09 06:06:11;;;;;;;11.32;7.45;;;10.70;99.90;;;;;;5010968;28;20064;-48
2024/02/09 06:08:37;;;;;;;10.88;7.25;;;10.70;99.90;;;;;;4994281;28;20022;-47
2024/02/09 06:11:04;;;;;;;12.45;8.52;;;10.80;99.90;;;;;;5013019;28;20068;-47
2024/02/09 06:13:30;;;;;;;13.43;8.40;;;10.80;99.90;;;;;;5014174;28;20502;-54
2024/02/09 06:15:59;;;;;;;14.73;7.82;;;10.80;99.90;;;;;;5014191;28;20025;-49
2024/02/09 06:18:26;;;;;;;14.20;7.15;;;10.80;99.90;;;;;;4996099;28;20121;-49
2024/02/09 06:20:53;;;;;;;12.80;7.50;;;10.80;99.90;;;;;;5013080;28;20026;-49
2024/02/09 06:23:25;;;;;;;6.93;6.13;;;10.80;99.90;;;;;;5012063;28;20026;-45
2024/02/09 06:25:51;;;;;;;16.52;7.30;;;10.80;99.90;;;;;;5012017;28;20022;-49
2024/02/09 06:28:20;;;;;;;17.15;7.43;;;10.80;99.90;;;;;;5011850;28;20018;-47
2024/02/09 06:30:47;;;;;;;12.57;6.95;;;10.80;99.90;;;;;;5010907;28;20065;-50
2024/02/09 06:33:16;;;;;;;15.30;7.28;;;10.70;99.90;;;;;;5011838;28;20022;-50
2024/02/09 06:35:43;;;;;;;13.43;7.53;;;10.70;99.90;;;;;;5011605;28;20030;-49
2024/02/09 06:38:11;;;;;;;18.13;7.00;;;10.70;99.90;;;;;;5013467;28;20114;-52
2024/02/09 06:40:38;;;;;;;11.57;6.85;;;10.70;99.90;;;;;;5014443;28;20022;-48
2024/02/09 06:43:04;;;;;;;22.33;8.43;;;10.70;99.90;;;;;;5015662;28;20034;-50
2024/02/09 06:45:29;;;;;;;15.32;8.30;;;10.70;99.90;;;;;;5015452;28;20368;-48
2024/02/09 06:47:55;;;;;;;18.13;7.97;;;10.70;99.90;;;;;;5017134;28;20072;-45
2024/02/09 06:50:21;;;;;;;17.73;9.18;;;10.70;99.90;;;;;;5015830;28;20726;-47
2024/02/09 06:52:48;;;;;;;15.43;7.57;;;10.70;99.90;;;;;;5015387;28;20076;-44
2024/02/09 06:55:18;;;;;;;16.52;8.57;;;10.70;99.90;;;;;;5015050;28;20028;-49
2024/02/09 06:57:44;;;;;;;23.05;9.02;;;10.70;99.90;;;;;;5004976;23;20115;-47
2024/02/09 07:00:13;;;;;;;20.77;9.18;;;10.70;99.90;;;;;;4995056;28;20062;-44
2024/02/09 07:02:39;;;;;;;18.23;7.82;;;10.70;99.90;;;;;;4989134;28;20034;-47
2024/02/09 07:05:08;;;;;;;13.90;8.15;;;10.70;99.90;;;;;;4975065;28;20023;-42
2024/02/09 07:07:38;;;;;;;17.17;8.35;;;10.70;99.90;;;;;;4987154;28;20125;-46
2024/02/09 07:10:04;;;;;;;12.40;7.30;;;10.80;99.90;;;;;;4995139;28;20499;-47
2024/02/09 07:12:30;;;;;;;20.05;7.20;;;10.80;99.90;;;;;;4995033;28;20412;-47
2024/02/09 07:14:55;;;;;;;16.58;8.02;;;10.80;99.90;;;;;;4995364;28;20023;-39
2024/02/09 07:17:25;;;;;;;13.88;8.15;;;10.80;99.90;;;;;;4994924;28;20177;-42
2024/02/09 07:19:50;;;;;;;17.80;8.10;;;10.90;99.90;;;;;;4994501;28;20014;-46
2024/02/09 07:22:16;;;;;;;14.77;8.57;;;10.90;99.90;;;;;;4994845;28;20037;-44
2024/02/09 07:24:41;;;;;;;17.60;7.88;;;10.90;99.90;;;;;;4994446;28;20113;-42
2024/02/09 07:27:07;;;;;;;13.57;6.68;;;10.90;99.90;;;;;;4993391;28;20395;-44
2024/02/09 07:29:32;;;;;;;14.02;7.88;;;10.90;99.90;;;;;;4994671;28;20037;-43
2024/02/09 07:31:58;;;;;;;17.73;8.93;;;10.90;99.90;;;;;;4993406;28;20029;-43
2024/02/09 07:34:23;;;;;;;11.80;6.97;;;10.90;99.90;;;;;;4994332;28;20034;-42
2024/02/09 07:36:49;;;;;;;17.95;6.97;;;10.90;99.90;;;;;;4994653;28;20132;-44
2024/02/09 07:39:14;;;;;;;18.73;7.82;;;10.90;99.90;;;;;;4994763;28;20031;-42
2024/02/09 07:41:40;;;;;;;21.20;7.25;;;10.90;99.90;;;;;;4994384;28;20514;-43
2024/02/09 07:44:07;;;;;;;19.00;7.60;;;10.90;99.90;;;;;;4994097;28;20533;-43
2024/02/09 07:46:33;;;;;;;15.02;7.68;;;10.90;99.90;;;;;;4995219;28;20050;-43
2024/02/09 07:48:58;;;;;;;23.17;7.28;;;10.90;99.90;;;;;;4992108;28;20440;-43
2024/02/09 07:51:24;;;;;;;17.17;7.90;;;11.00;99.90;;;;;;4984234;28;20022;-48
2024/02/09 07:53:52;;;;;;;15.27;6.57;;;11.00;99.90;;;;;;4993524;28;20065;-49
2024/02/09 07:56:27;;;;;;;11.75;6.60;;;11.00;99.90;;;;;;4993723;28;20030;-44
2024/02/09 07:58:52;;;;;;;11.95;7.40;;;11.10;99.90;;;;;;4994358;28;20034;-45
2024/02/09 08:01:22;;;;;;;18.92;6.97;;;11.10;99.90;;;;;;4992638;28;20450;-43
2024/02/09 08:03:48;;;;;;;14.50;6.40;;;11.10;99.90;;;;;;4993729;28;20026;-41
2024/02/09 08:06:14;;;;;;;12.07;6.07;;;11.20;99.90;;;;;;4994393;28;20037;-44
2024/02/09 08:08:39;;;;;;;18.10;6.20;;;11.20;99.90;;;;;;4994206;28;20492;-46
2024/02/09 08:11:05;;;;;;;22.27;6.40;;;11.10;99.90;;;;;;4993394;28;20026;-46
2024/02/09 08:13:30;;;;;;;17.63;5.50;;;11.20;99.90;;;;;;4992990;28;20038;-48
2024/02/09 08:15:56;;;;;;;12.43;5.80;;;11.20;99.90;;;;;;4993733;28;20396;-44
2024/02/09 08:18:22;;;;;;;20.75;6.30;;;11.20;99.90;;;;;;4993728;28;20019;-45
2024/02/09 08:20:48;;;;;;;14.90;5.63;;;11.20;99.90;;;;;;4993361;28;20065;-49
2024/02/09 08:23:13;;;;;;;10.77;6.30;;;11.20;99.90;;;;;;4993238;28;20052;-45
2024/02/09 08:25:39;;;;;;;15.07;6.05;;;11.30;99.90;;;;;;4993770;28;20026;-48
2024/02/09 08:28:05;;;;;;;10.52;5.90;;;11.30;99.90;;;;;;4993509;28;20381;-48
2024/02/09 08:30:30;;;;;;;13.77;6.22;;;11.30;99.90;;;;;;4992540;28;20092;-49
2024/02/09 08:32:56;;;;;;;17.67;6.65;;;11.40;99.90;;;;;;4993422;28;20038;-46
2024/02/09 08:35:21;;;;;;;14.98;5.50;;;11.40;99.90;;;;;;4993316;28;20034;-51
2024/02/09 08:37:47;;;;;;;10.07;5.72;;;11.40;99.90;;;;;;4993480;28;20098;-48
2024/02/09 08:40:13;;;;;;;17.17;5.50;;;11.40;99.90;;;;;;4992212;28;20496;-46
2024/02/09 08:42:39;;;;;;;16.48;6.30;;;11.50;99.90;;;;;;4994090;28;20077;-45
2024/02/09 08:45:05;;;;;;;12.90;5.38;;;11.60;99.90;;;;;;4993165;28;20431;-44
2024/02/09 08:47:31;;;;;;;13.02;5.65;;;11.60;99.90;;;;;;4993877;28;20026;-48
2024/02/09 08:49:56;;;;;;;14.75;6.15;;;11.70;99.90;;;;;;4994358;28;20062;-47
2024/02/09 08:52:22;;;;;;;15.93;7.40;;;11.70;99.90;;;;;;4993282;28;20041;-47
2024/02/09 08:54:48;;;;;;;13.75;5.15;;;11.70;99.90;;;;;;4992827;28;20027;-50
2024/02/09 08:57:18;;;;;;;10.70;4.82;;;11.80;99.90;;;;;;4993071;28;20037;-47
2024/02/09 08:59:44;;;;;;;11.77;5.05;;;11.80;99.90;;;;;;4993151;28;20427;-44
2024/02/09 09:02:11;;;;;;;16.67;5.47;;;12.00;99.90;;;;;;4991641;28;20019;-45
2024/02/09 09:04:36;;;;;;;10.48;4.45;;;12.00;99.90;;;;;;4991762;28;20108;-45
2024/02/09 09:07:02;;;;;;;9.13;5.78;;;12.10;99.90;;;;;;4992317;28;20130;-47
2024/02/09 09:09:27;;;;;;;11.27;4.57;;;12.20;99.90;;;;;;4991670;28;20429;-44
2024/02/09 09:11:56;;;;;;;16.30;4.93;;;12.20;99.90;;;;;;4991059;28;20081;-43
2024/02/09 09:14:22;;;;;;;12.13;4.20;;;12.20;99.90;;;;;;4992615;28;20044;-42
2024/02/09 09:16:48;;;;;;;11.23;4.40;;;12.20;99.90;;;;;;4992726;28;20049;-46
2024/02/09 09:19:14;;;;;;;11.27;5.70;;;12.20;99.90;;;;;;4992442;28;20058;-41
2024/02/09 09:21:42;;;;;;;17.75;5.65;;;12.30;99.90;;;;;;4992430;28;20023;-42
2024/02/09 09:24:08;;;;;;;13.02;4.72;;;12.20;99.90;;;;;;4992299;28;20089;-44
2024/02/09 09:26:34;;;;;;;7.25;4.13;;;12.20;99.90;;;;;;4992479;28;20030;-44
2024/02/09 09:29:00;;;;;;;13.20;4.47;;;12.20;99.90;;;;;;4992139;28;20038;-44
2024/02/09 09:31:26;;;;;;;13.85;4.70;;;12.10;99.90;;;;;;4992474;28;20030;-45
2024/02/09 09:33:56;;;;;;;15.23;5.63;;;12.20;99.90;;;;;;4991642;28;20030;-43
2024/02/09 09:36:21;;;;;;;12.55;4.20;;;12.20;99.90;;;;;;4992318;28;20092;-45
2024/02/09 09:38:47;;;;;;;9.93;5.43;;;12.20;99.90;;;;;;4992286;28;20018;-45
2024/02/09 09:41:13;;;;;;;14.50;5.95;;;12.30;99.90;;;;;;4992378;28;20519;-44
2024/02/09 09:43:42;;;;;;;6.30;3.88;;;12.40;99.90;;;;;;4992301;28;20542;-45
2024/02/09 09:46:09;;;;;;;10.80;4.32;;;12.50;99.90;;;;;;4992135;28;20033;-47
2024/02/09 09:48:35;;;;;;;17.42;5.03;;;12.70;99.90;;;;;;4990786;28;20034;-46
2024/02/09 09:51:03;;;;;;;13.07;5.47;;;12.80;99.90;;;;;;4991962;28;20033;-44
2024/02/09 09:53:38;;;;;;;12.85;4.22;;;13.00;99.90;;;;;;4990629;28;20034;-44
2024/02/09 09:56:07;;;;;;;10.52;3.90;;;13.00;99.90;;;;;;4991534;28;20030;-47
2024/02/09 09:58:36;;;;;;;13.95;4.72;;;13.10;99.90;;;;;;4991834;28;20041;-46
2024/02/09 10:01:07;;;;;;;9.60;3.60;;;13.20;99.90;;;;;;4991957;28;20029;-47
2024/02/09 10:03:36;;;;;;;13.85;4.32;;;13.20;99.90;;;;;;4991301;28;20034;-42
2024/02/09 10:06:02;;;;;;;9.52;4.20;;;13.20;99.90;;;;;;4991682;28;20109;-42
2024/02/09 10:08:28;;;;;;;7.45;4.47;;;13.20;99.90;;;;;;4992018;28;20038;-47
2024/02/09 10:10:55;;;;;;;10.80;4.90;;;13.30;99.90;;;;;;4991878;28;20158;-42
2024/02/09 10:13:23;;;;;;;6.70;3.80;;;13.30;99.90;;;;;;4991224;28;20030;-46
2024/02/09 10:15:51;;;;;;;11.82;4.20;;;13.20;99.90;;;;;;4990501;28;20044;-44
2024/02/09 10:18:17;;;;;;;12.13;3.40;;;13.20;99.90;;;;;;4991428;28;20520;-42
2024/02/09 10:20:46;;;;;;;15.55;4.43;;;13.00;99.90;;;;;;4992143;28;20357;-42
2024/02/09 10:23:19;;;;;;;12.88;4.72;;;13.10;99.90;;;;;;4991323;28;20124;-48
2024/02/09 10:25:45;;;;;;;15.20;4.18;;;13.00;99.90;;;;;;4991670;28;20027;-42
2024/02/09 10:28:11;;;;;;;9.63;4.20;;;13.00;99.90;;;;;;4991207;28;20084;-43
2024/02/09 10:30:37;;;;;;;11.63;3.85;;;12.90;99.90;;;;;;4991377;28;20097;-42
2024/02/09 10:33:03;;;;;;;8.85;3.67;;;13.00;99.90;;;;;;4991533;28;20476;-48
2024/02/09 10:35:28;;;;;;;9.57;3.60;;;13.00;99.90;;;;;;4991647;28;20072;-40
2024/02/09 10:38:00;;;;;;;11.80;4.15;;;13.20;99.90;;;;;;4991601;28;20022;-45
2024/02/09 10:40:26;;;;;;;12.02;4.15;;;13.30;99.90;;;;;;4991310;28;20224;-45
2024/02/09 10:42:52;;;;;;;11.32;3.92;;;13.50;99.90;;;;;;4991070;28;20038;-44
2024/02/09 10:45:18;;;;;;;5.63;3.28;;;13.60;99.90;;;;;;4991026;28;20018;-46
2024/02/09 10:47:47;;;;;;;7.43;3.38;;;13.60;99.90;;;;;;4988854;28;20039;-46
2024/02/09 10:50:15;;;;;;;10.25;3.03;;;13.80;99.90;;;;;;4981450;28;20057;-42
2024/02/09 10:52:44;;;;;;;4.65;3.42;;;13.80;99.90;;;;;;4989569;28;20026;-44
2024/02/09 10:55:13;;;;;;;15.20;3.63;;;14.00;99.90;;;;;;4991097;28;20022;-44
2024/02/09 10:57:41;;;;;;;8.75;3.33;;;14.20;99.90;;;;;;4977862;28;20488;-50
2024/02/09 11:00:10;;;;;;;11.50;5.22;;;14.30;99.90;;;;;;4991550;28;20022;-45
2024/02/09 11:02:36;;;;;;;9.15;2.90;;;14.60;99.90;;;;;;4991124;28;20026;-46
2024/02/09 11:05:03;;;;;;;7.47;3.30;;;14.70;99.90;;;;;;4990172;28;20034;-44
2024/02/09 11:07:29;;;;;;;11.98;3.65;;;14.60;99.90;;;;;;4991114;28;20426;-43
2024/02/09 11:09:56;;;;;;;6.55;3.05;;;14.70;99.90;;;;;;4990962;28;20448;-42
2024/02/09 11:12:21;;;;;;;5.82;2.67;;;14.80;99.90;;;;;;4991202;28;20030;-50
2024/02/09 11:14:47;;;;;;;10.48;3.15;;;14.90;99.90;;;;;;4990673;28;20043;-48
2024/02/09 11:17:18;;;;;;;8.38;2.70;;;14.90;99.90;;;;;;4990364;28;20019;-42
2024/02/09 11:19:44;;;;;;;14.15;4.10;;;14.90;99.90;;;;;;4990648;28;20026;-45
2024/02/09 11:22:11;;;;;;;7.00;3.25;;;15.00;99.90;;;;;;4990555;28;20510;-44
2024/02/09 11:24:37;;;;;;;6.63;2.63;;;15.10;99.90;;;;;;4990992;28;20109;-47
2024/02/09 11:27:05;;;;;;;13.50;2.90;;;15.00;99.90;;;;;;4994498;28;20443;-44
2024/02/09 11:29:32;;;;;;;10.80;2.72;;;14.80;99.90;;;;;;4994117;28;20530;-43
2024/02/09 11:32:02;;;;;;;6.97;3.13;;;14.80;99.90;;;;;;4994318;28;20030;-50
2024/02/09 11:34:29;;;;;;;8.55;3.03;;;14.80;99.90;;;;;;4991865;28;20034;-48
2024/02/09 11:37:00;;;;;;;9.88;3.17;;;14.70;99.90;;;;;;4993464;28;20169;-46
2024/02/09 11:39:33;;;;;;;6.00;3.03;;;14.60;99.90;;;;;;4994376;28;20033;-43
2024/02/09 11:42:00;;;;;;;7.82;2.60;;;14.60;99.90;;;;;;4993095;28;20026;-43
2024/02/09 11:44:26;;;;;;;8.18;2.95;;;14.50;99.90;;;;;;4994148;28;20065;-45
2024/02/09 11:46:52;;;;;;;6.85;2.95;;;14.50;99.90;;;;;;4995680;28;20081;-43
2024/02/09 11:49:19;;;;;;;13.40;3.45;;;14.40;99.90;;;;;;4995229;28;20030;-46
2024/02/09 11:51:45;;;;;;;11.15;3.25;;;14.30;99.90;;;;;;4993664;28;20495;-42
2024/02/09 11:54:12;;;;;;;15.27;8.35;;;14.20;99.90;;;;;;4992605;28;20038;-47
2024/02/09 11:56:39;;;;;;;9.75;4.50;;;14.10;99.90;;;;;;4994307;28;20031;-43
2024/02/09 11:59:05;;;;;;;6.10;2.70;;;14.10;99.90;;;;;;4993615;28;20031;-42
2024/02/09 12:01:31;;;;;;;7.50;2.88;;;14.20;99.90;;;;;;4994216;28;20425;-47
2024/02/09 12:03:58;;;;;;;9.60;3.13;;;14.20;99.90;;;;;;4993870;28;20046;-44
2024/02/09 12:06:24;;;;;;;13.63;4.00;;;14.20;99.90;;;;;;4993953;28;20026;-43
2024/02/09 12:08:52;;;;;;;6.72;2.20;;;14.20;99.90;;;;;;4994271;28;20385;-42
2024/02/09 12:11:18;;;;;;;10.43;3.00;;;14.30;99.90;;;;;;4993960;28;20380;-44
2024/02/09 12:13:48;;;;;;;11.20;3.15;;;14.30;99.90;;;;;;4993791;28;20117;-47
2024/02/09 12:16:16;;;;;;;9.15;3.63;;;14.40;99.90;;;;;;4994028;28;20038;-43
2024/02/09 12:19:01;;;;;;;18.10;3.78;;;14.40;99.90;;;;;;4992424;28;20033;-45
2024/02/09 12:21:28;;;;;;;;;;;14.40;99.90;;;;;;4994024;28;20475;-42
2024/02/09 12:23:54;;;;;;;8.75;2.72;;;14.40;99.90;;;;;;4993652;28;20326;-43
2024/02/09 12:26:20;;;;;;;7.50;3.15;;;14.40;99.90;;;;;;4993743;28;20034;-44
2024/02/09 12:28:46;;;;;;;7.45;2.78;;;14.30;99.90;;;;;;4993659;28;20030;-43
2024/02/09 12:31:19;;;;;;;12.10;2.83;;;14.30;99.90;;;;;;4993391;28;20395;-42
2024/02/09 12:33:49;;;;;;;8.98;3.45;;;14.30;99.90;;;;;;4992910;28;20440;-43
2024/02/09 12:36:19;;;;;;;8.88;2.85;;;14.30;99.90;;;;;;4993310;28;20030;-44
2024/02/09 12:38:45;;;;;;;8.48;2.97;;;14.30;99.90;;;;;;4992093;28;20459;-43
2024/02/09 12:41:12;;;;;;;9.52;3.35;;;14.30;99.90;;;;;;4992896;28;20018;-49
2024/02/09 12:43:38;;;;;;;14.77;3.28;;;14.30;99.90;;;;;;4993500;28;20113;-42
2024/02/09 12:46:04;;;;;;;8.70;2.92;;;14.10;99.90;;;;;;4992820;28;20058;-49
2024/02/09 12:48:30;;;;;;;11.27;2.90;;;14.10;99.90;;;;;;4993304;28;20055;-44
2024/02/09 12:50:57;;;;;;;7.93;3.13;;;14.00;99.90;;;;;;4993574;28;20030;-43
2024/02/09 12:53:23;;;;;;;9.65;3.05;;;13.90;99.90;;;;;;4992594;28;20085;-47
2024/02/09 12:55:49;;;;;;;9.25;2.88;;;13.90;99.90;;;;;;4992945;28;20032;-43
2024/02/09 12:58:16;;;;;;;12.48;3.15;;;13.90;99.90;;;;;;4992829;28;20086;-47
2024/02/09 13:00:42;;;;;;;14.98;3.92;;;13.90;99.90;;;;;;4993373;28;20026;-43
2024/02/09 13:03:08;;;;;;;9.48;2.80;;;14.00;99.90;;;;;;4992672;28;20062;-44
2024/02/09 13:05:34;;;;;;;12.35;3.10;;;14.00;99.90;;;;;;4992913;28;20562;-45
2024/02/09 13:08:00;;;;;;;6.90;2.60;;;14.10;99.90;;;;;;4992645;28;20057;-45
2024/02/09 13:10:26;;;;;;;19.77;3.13;;;14.20;99.90;;;;;;4992906;28;20108;-45
2024/02/09 13:12:53;;;;;;;9.88;3.28;;;14.20;99.90;;;;;;4992222;28;20501;-46
2024/02/09 13:15:19;;;;;;;10.35;3.28;;;14.20;99.90;;;;;;4992843;28;20126;-45
2024/02/09 13:17:45;;;;;;;9.13;3.00;;;14.20;99.90;;;;;;4992511;28;20310;-42
2024/02/09 13:20:11;;;;;;;6.47;2.55;;;14.20;99.90;;;;;;4992700;28;20030;-46
2024/02/09 13:22:37;;;;;;;9.32;3.05;;;14.30;99.90;;;;;;4992715;28;20026;-45
2024/02/09 13:25:04;;;;;;;6.45;3.03;;;14.20;99.90;;;;;;4992178;28;20077;-48
2024/02/09 13:27:31;;;;;;;5.72;2.88;;;14.20;99.90;;;;;;4992886;28;20029;-42
2024/02/09 13:29:57;;;;;;;10.27;3.83;;;14.20;99.90;;;;;;4992893;28;20026;-46
2024/02/09 13:32:24;;;;;;;5.75;2.50;;;14.10;99.90;;;;;;4991777;28;20022;-45
2024/02/09 13:34:51;;;;;;;9.48;2.85;;;14.10;99.90;;;;;;4992396;28;20092;-48
2024/02/09 13:37:16;;;;;;;5.68;3.15;;;14.10;99.90;;;;;;4992520;28;20081;-44
2024/02/09 13:39:42;;;;;;;7.50;2.53;;;14.10;99.90;;;;;;4992413;28;20435;-47
2024/02/09 13:42:07;;;;;;;8.88;2.72;;;14.10;99.90;;;;;;4992414;28;20022;-44
2024/02/09 13:44:37;;;;;;;5.90;2.75;;;14.10;99.90;;;;;;4990630;28;20057;-45
2024/02/09 13:47:03;;;;;;;5.93;3.03;;;14.00;99.90;;;;;;4992173;28;20364;-45
2024/02/09 13:49:30;;;;;;;10.63;3.03;;;14.00;99.90;;;;;;4991805;28;20161;-49
2024/02/09 13:51:56;;;;;;;9.50;2.78;;;14.00;99.90;;;;;;4992359;28;20092;-49
2024/02/09 13:54:22;;;;;;;11.52;2.92;;;14.00;99.90;;;;;;4990940;28;20396;-44
2024/02/09 13:56:47;;;;;;;9.07;3.75;;;14.00;99.90;;;;;;4992373;28;20030;-44
2024/02/09 13:59:14;;;;;;;4.88;2.63;;;13.90;99.90;;;;;;4990591;28;20150;-44
2024/02/09 14:01:40;;;;;;;8.23;3.13;;;13.90;99.90;;;;;;4992414;28;20065;-44
2024/02/09 14:04:07;;;;;;;7.22;3.20;;;14.00;99.90;;;;;;4992181;28;20050;-43
2024/02/09 14:06:35;;;;;;;9.57;3.47;;;14.00;99.90;;;;;;4992081;28;20022;-43
2024/02/09 14:09:00;;;;;;;8.32;2.65;;;14.00;99.90;;;;;;4991726;28;20089;-44
2024/02/09 14:11:27;;;;;;;7.85;2.50;;;14.00;99.90;;;;;;4992016;28;20447;-42
2024/02/09 14:13:52;;;;;;;9.50;3.03;;;14.00;99.90;;;;;;4992209;28;20068;-44
2024/02/09 14:16:20;;;;;;;10.32;3.10;;;14.00;99.90;;;;;;4992655;28;20504;-48
2024/02/09 14:18:46;;;;;;;6.38;2.85;;;14.10;99.90;;;;;;4992034;28;20106;-45
2024/02/09 14:21:12;;;;;;;9.38;3.03;;;14.00;99.90;;;;;;4991822;28;20030;-49
2024/02/09 14:23:38;;;;;;;4.60;2.70;;;14.00;99.90;;;;;;4991758;28;20036;-44
2024/02/09 14:26:05;;;;;;;6.65;3.95;;;14.10;99.90;;;;;;4992599;28;20073;-48
2024/02/09 14:28:30;;;;;;;7.00;2.80;;;14.00;99.90;;;;;;4993004;28;20070;-44